createdAt,value
2022-11-09T00:01:04.134Z,8.35
2022-11-09T00:03:31.899Z,8.30
2022-11-09T00:06:00.813Z,8.24
2022-11-09T00:08:28.790Z,8.19
2022-11-09T00:10:57.129Z,8.19
2022-11-09T00:13:24.762Z,8.22
2022-11-09T00:15:52.510Z,8.21
2022-11-09T00:18:20.191Z,8.18
2022-11-09T00:20:48.559Z,8.18
2022-11-09T00:23:18.063Z,8.18
2022-11-09T00:25:46.242Z,8.06
2022-11-09T00:28:13.873Z,8.02
2022-11-09T00:30:42.623Z,8.01
2022-11-09T00:33:12.313Z,8.00
2022-11-09T00:35:40.725Z,7.98
2022-11-09T00:38:08.434Z,8.02
2022-11-09T00:40:36.202Z,7.95
2022-11-09T00:43:03.889Z,7.98
2022-11-09T00:45:31.509Z,8.02
2022-11-09T00:47:59.147Z,8.03
2022-11-09T00:50:26.853Z,8.00
2022-11-09T00:52:54.472Z,8.00
2022-11-09T00:55:25.547Z,8.01
2022-11-09T00:57:53.738Z,8.07
2022-11-09T01:00:24.521Z,8.07
2022-11-09T01:02:52.369Z,8.10
2022-11-09T01:05:20.934Z,8.09
2022-11-09T01:07:48.590Z,8.06
2022-11-09T01:10:16.241Z,8.04
2022-11-09T01:12:44.005Z,7.93
2022-11-09T01:15:11.843Z,7.93
2022-11-09T01:17:39.481Z,7.91
2022-11-09T01:20:07.635Z,7.89
2022-11-09T01:22:35.243Z,7.92
2022-11-09T01:25:02.904Z,7.93
2022-11-09T01:27:30.522Z,7.92
2022-11-09T01:29:58.173Z,7.94
2022-11-09T01:32:25.878Z,7.94
2022-11-09T01:34:53.947Z,7.94
2022-11-09T01:37:21.626Z,7.95
2022-11-09T01:39:49.242Z,7.93
2022-11-09T01:42:24.245Z,7.91
2022-11-09T01:45:30.786Z,7.85
2022-11-09T01:48:01.072Z,7.78
2022-11-09T01:50:53.907Z,7.75
2022-11-09T01:53:28.752Z,7.67
2022-11-09T01:55:59.753Z,7.63
2022-11-09T01:58:32.574Z,7.60
2022-11-09T02:01:01.923Z,7.57
2022-11-09T02:03:34.784Z,7.44
2022-11-09T02:06:07.641Z,7.46
2022-11-09T02:08:35.645Z,7.45
2022-11-09T02:11:15.091Z,7.42
2022-11-09T02:13:50.293Z,7.39
2022-11-09T02:16:19.556Z,7.39
2022-11-09T02:18:53.071Z,7.38
2022-11-09T02:21:22.494Z,7.36
2022-11-09T02:23:51.427Z,7.32
2022-11-09T02:26:41.130Z,7.28
2022-11-09T02:29:11.365Z,7.28
2022-11-09T02:31:44.404Z,7.24
2022-11-09T02:34:15.474Z,7.29
2022-11-09T02:36:44.711Z,7.30
2022-11-09T02:39:14.619Z,7.33
2022-11-09T02:41:52.776Z,7.42
2022-11-09T02:44:21.069Z,7.48
2022-11-09T02:46:48.934Z,7.50
2022-11-09T02:49:16.593Z,7.51
2022-11-09T02:51:44.259Z,7.51
2022-11-09T02:54:11.959Z,7.58
2022-11-09T02:56:39.581Z,7.62
2022-11-09T02:59:07.193Z,7.68
2022-11-09T03:01:34.909Z,7.73
2022-11-09T03:04:02.686Z,7.76
2022-11-09T03:06:36.318Z,7.77
2022-11-09T03:09:10.905Z,7.79
2022-11-09T03:11:39.938Z,7.78
2022-11-09T03:14:07.770Z,7.80
2022-11-09T03:16:35.418Z,7.82
2022-11-09T03:19:03.175Z,7.89
2022-11-09T03:21:30.859Z,7.90
2022-11-09T03:23:58.699Z,7.88
2022-11-09T03:26:26.380Z,7.92
2022-11-09T03:28:53.965Z,7.99
2022-11-09T03:31:21.600Z,8.01
2022-11-09T03:33:49.234Z,8.03
2022-11-09T03:36:17.202Z,8.07
2022-11-09T03:38:44.800Z,8.08
2022-11-09T03:41:12.405Z,8.01
2022-11-09T03:43:40.015Z,8.03
2022-11-09T03:46:07.612Z,8.08
2022-11-09T03:48:35.258Z,8.10
2022-11-09T03:51:02.938Z,8.10
2022-11-09T03:53:30.559Z,8.12
2022-11-09T03:55:58.972Z,8.01
2022-11-09T03:58:26.553Z,8.04
2022-11-09T04:00:54.192Z,8.03
2022-11-09T04:03:22.033Z,8.01
2022-11-09T04:05:49.937Z,7.99
2022-11-09T04:08:17.697Z,7.98
2022-11-09T04:10:45.513Z,7.92
2022-11-09T04:13:13.136Z,7.90
2022-11-09T04:15:40.766Z,7.90
2022-11-09T04:18:08.406Z,7.88
2022-11-09T04:20:35.990Z,7.85
2022-11-09T04:23:05.929Z,7.84
2022-11-09T04:25:36.061Z,7.80
2022-11-09T04:28:05.561Z,7.77
2022-11-09T04:30:36.032Z,7.78
2022-11-09T04:33:04.325Z,7.81
2022-11-09T04:35:34.422Z,7.86
2022-11-09T04:38:05.703Z,7.90
2022-11-09T04:40:35.579Z,7.91
2022-11-09T04:43:05.950Z,7.89
2022-11-09T04:45:35.400Z,7.93
2022-11-09T04:48:05.689Z,7.99
2022-11-09T04:50:34.164Z,8.05
2022-11-09T04:53:16.500Z,8.09
2022-11-09T04:55:44.482Z,8.13
2022-11-09T04:58:12.238Z,8.14
2022-11-09T05:00:40.176Z,8.17
2022-11-09T05:03:08.780Z,8.16
2022-11-09T05:05:38.176Z,8.18
2022-11-09T05:08:06.692Z,8.24
2022-11-09T05:10:35.184Z,8.22
2022-11-09T05:13:08.516Z,8.28
2022-11-09T05:15:36.990Z,8.36
2022-11-09T05:18:05.921Z,8.43
2022-11-09T05:20:34.085Z,8.49
2022-11-09T05:23:20.967Z,8.57
2022-11-09T05:25:49.018Z,8.61
2022-11-09T05:28:16.679Z,8.65
2022-11-09T05:30:44.318Z,8.74
2022-11-09T05:33:11.929Z,8.78
2022-11-09T05:35:39.544Z,8.82
2022-11-09T05:38:07.182Z,8.87
2022-11-09T05:40:35.132Z,8.90
2022-11-09T05:43:02.782Z,8.93
2022-11-09T05:45:45.724Z,8.91
2022-11-09T05:48:17.944Z,8.92
2022-11-09T05:50:45.796Z,8.96
2022-11-09T05:53:13.941Z,8.94
2022-11-09T05:55:41.773Z,8.99
2022-11-09T05:58:10.295Z,9.01
2022-11-09T06:00:38.430Z,9.06
2022-11-09T06:03:08.767Z,9.05
2022-11-09T06:05:41.903Z,9.06
2022-11-09T06:08:12.491Z,9.05
2022-11-09T06:10:40.829Z,9.06
2022-11-09T06:13:09.005Z,9.08
2022-11-09T06:15:36.664Z,9.11
2022-11-09T06:18:04.415Z,9.12
2022-11-09T06:20:32.449Z,9.12
2022-11-09T06:23:04.177Z,9.15
2022-11-09T06:25:33.969Z,9.18
2022-11-09T06:28:02.140Z,9.19
2022-11-09T06:30:30.043Z,9.20
2022-11-09T06:33:04.325Z,9.16
2022-11-09T06:35:31.929Z,9.14
2022-11-09T06:38:01.310Z,9.13
2022-11-09T06:40:29.776Z,9.14
2022-11-09T06:43:01.452Z,9.14
2022-11-09T06:45:30.395Z,9.12
2022-11-09T06:47:59.539Z,9.11
2022-11-09T06:50:28.971Z,9.08
2022-11-09T06:52:58.930Z,9.09
2022-11-09T06:55:28.429Z,9.08
2022-11-09T06:57:56.652Z,9.10
2022-11-09T07:00:25.514Z,9.13
2022-11-09T07:02:53.345Z,9.14
2022-11-09T07:05:21.636Z,9.16
2022-11-09T07:07:49.248Z,9.19
2022-11-09T07:10:17.485Z,9.23
2022-11-09T07:12:45.247Z,9.26
2022-11-09T07:15:13.573Z,9.29
2022-11-09T07:17:42.347Z,9.32
2022-11-09T07:20:11.530Z,9.37
2022-11-09T07:22:42.938Z,9.40
2022-11-09T07:25:12.179Z,9.46
2022-11-09T07:27:39.854Z,9.51
2022-11-09T07:30:08.544Z,9.59
2022-11-09T07:35:24.887Z,9.75
2022-11-09T07:37:52.520Z,9.78
2022-11-09T07:40:20.702Z,9.82
2022-11-09T07:42:48.354Z,9.85
2022-11-09T07:45:16.080Z,9.90
2022-11-09T07:47:43.759Z,9.99
2022-11-09T07:50:11.563Z,10.06
2022-11-09T07:52:39.128Z,10.16
2022-11-09T07:55:07.380Z,10.22
2022-11-09T07:57:35.025Z,10.31
2022-11-09T08:00:02.684Z,10.38
2022-11-09T08:02:30.350Z,10.42
2022-11-09T08:04:58.007Z,10.46
2022-11-09T08:07:26.005Z,10.49
2022-11-09T08:09:54.300Z,10.50
2022-11-09T08:12:22.343Z,10.51
2022-11-09T08:14:49.975Z,10.47
2022-11-09T08:17:17.707Z,10.50
2022-11-09T08:19:45.401Z,10.47
2022-11-09T08:22:13.000Z,10.47
2022-11-09T08:24:40.653Z,10.53
2022-11-09T08:27:08.315Z,10.53
2022-11-09T08:29:35.959Z,10.52
2022-11-09T08:32:03.646Z,10.64
2022-11-09T08:34:31.310Z,10.72
2022-11-09T08:37:01.913Z,10.82
2022-11-09T08:39:29.547Z,10.86
2022-11-09T08:41:57.362Z,10.94
2022-11-09T08:44:25.018Z,11.01
2022-11-09T08:46:52.733Z,11.05
2022-11-09T08:49:20.332Z,11.10
2022-11-09T08:51:47.977Z,11.13
2022-11-09T08:54:16.201Z,11.19
2022-11-09T08:56:43.852Z,11.25
2022-11-09T08:59:11.518Z,11.31
2022-11-09T09:01:39.283Z,11.38
2022-11-09T09:04:06.917Z,11.43
2022-11-09T09:06:34.607Z,11.49
2022-11-09T09:09:02.343Z,11.56
2022-11-09T09:11:30.111Z,11.59
2022-11-09T09:13:57.752Z,11.63
2022-11-09T09:16:25.427Z,11.69
2022-11-09T09:18:53.221Z,11.75
2022-11-09T09:21:20.913Z,11.78
2022-11-09T09:23:50.434Z,11.81
2022-11-09T09:26:18.676Z,11.84
2022-11-09T09:28:46.340Z,11.86
2022-11-09T09:31:18.243Z,11.90
2022-11-09T09:33:46.600Z,11.93
2022-11-09T09:36:20.064Z,11.98
2022-11-09T09:38:48.090Z,11.97
2022-11-09T09:41:36.268Z,12.01
2022-11-09T09:44:17.561Z,12.06
2022-11-09T09:46:53.656Z,12.09
2022-11-09T09:49:27.300Z,12.15
2022-11-09T09:52:22.424Z,12.18
2022-11-09T09:55:27.174Z,12.21
2022-11-09T09:58:02.078Z,12.25
2022-11-09T10:00:29.775Z,12.29
2022-11-09T10:02:57.537Z,12.34
2022-11-09T10:05:35.032Z,12.38
2022-11-09T10:08:16.603Z,12.41
2022-11-09T10:11:01.782Z,12.43
2022-11-09T10:13:56.435Z,12.44
2022-11-09T10:16:30.197Z,12.45
2022-11-09T10:19:31.633Z,12.49
2022-11-09T10:22:09.584Z,12.53
2022-11-09T10:25:27.905Z,12.60
2022-11-09T10:28:15.582Z,12.62
2022-11-09T10:30:43.493Z,12.63
2022-11-09T10:33:22.469Z,12.65
2022-11-09T10:36:32.083Z,12.67
2022-11-09T10:39:02.423Z,12.71
2022-11-09T10:41:35.644Z,12.74
2022-11-09T10:44:03.385Z,12.77
2022-11-09T10:46:31.029Z,12.81
2022-11-09T10:48:58.743Z,12.84
2022-11-09T10:51:44.057Z,12.86
2022-11-09T10:54:22.767Z,12.84
2022-11-09T10:57:07.212Z,12.83
2022-11-09T10:59:49.807Z,12.85
2022-11-09T11:02:26.494Z,12.89
2022-11-09T11:05:19.624Z,12.87
2022-11-09T11:07:47.666Z,12.91
2022-11-09T11:10:18.145Z,12.95
2022-11-09T11:13:05.979Z,12.93
2022-11-09T11:15:42.496Z,12.89
2022-11-09T11:18:25.526Z,12.89
2022-11-09T11:21:19.773Z,12.91
2022-11-09T11:24:15.509Z,12.93
2022-11-09T11:27:00.995Z,12.98
2022-11-09T11:29:57.166Z,12.95
2022-11-09T11:32:25.165Z,12.97
2022-11-09T11:35:01.377Z,12.98
2022-11-09T11:37:38.868Z,13.04
2022-11-09T11:40:16.477Z,13.11
2022-11-09T11:42:53.278Z,13.20
2022-11-09T11:45:48.874Z,13.25
2022-11-09T11:48:45.909Z,13.25
2022-11-09T11:51:28.227Z,13.25
2022-11-09T11:54:01.888Z,13.22
2022-11-09T11:56:39.462Z,13.22
2022-11-09T12:00:01.300Z,13.21
2022-11-09T12:02:59.363Z,13.13
2022-11-09T12:05:55.813Z,13.05
2022-11-09T12:08:30.003Z,13.02
2022-11-09T12:11:22.935Z,13.02
2022-11-09T12:14:09.402Z,13.03
2022-11-09T12:16:48.430Z,13.05
2022-11-09T12:19:44.072Z,13.06
2022-11-09T12:22:20.634Z,13.07
2022-11-09T12:25:11.327Z,13.07
2022-11-09T12:28:07.447Z,13.07
2022-11-09T12:30:48.802Z,13.05
2022-11-09T12:33:23.268Z,13.10
2022-11-09T12:36:00.504Z,13.12
2022-11-09T12:38:37.722Z,13.09
2022-11-09T12:41:16.614Z,13.07
2022-11-09T12:44:18.070Z,13.04
2022-11-09T12:47:18.409Z,13.01
2022-11-09T12:49:47.812Z,13.05
2022-11-09T12:52:20.474Z,13.03
2022-11-09T12:54:51.643Z,13.06
2022-11-09T12:57:28.741Z,13.07
2022-11-09T13:00:01.316Z,13.11
2022-11-09T13:02:32.865Z,13.12
2022-11-09T13:05:04.081Z,13.16
2022-11-09T13:07:38.921Z,13.13
2022-11-09T13:10:07.236Z,13.14
2022-11-09T13:12:43.816Z,13.15
2022-11-09T13:15:32.091Z,13.14
2022-11-09T13:18:01.433Z,13.12
2022-11-09T13:20:54.865Z,13.13
2022-11-09T13:24:00.193Z,13.12
2022-11-09T13:26:34.254Z,13.07
2022-11-09T13:29:09.708Z,13.09
2022-11-09T13:31:58.965Z,13.07
2022-11-09T13:35:02.144Z,13.00
2022-11-09T13:37:41.841Z,12.95
2022-11-09T13:40:34.587Z,12.94
2022-11-09T13:43:11.161Z,12.92
2022-11-09T13:45:47.658Z,12.89
2022-11-09T13:48:28.924Z,12.89
2022-11-09T13:50:59.498Z,12.90
2022-11-09T13:53:52.149Z,12.90
2022-11-09T13:56:41.100Z,12.88
2022-11-09T13:59:22.768Z,12.83
2022-11-09T14:01:55.043Z,12.80
2022-11-09T14:04:25.678Z,12.78
2022-11-09T14:07:19.419Z,12.70
2022-11-09T14:09:55.716Z,12.69
2022-11-09T14:12:43.221Z,12.67
2022-11-09T14:15:38.149Z,12.63
2022-11-09T14:18:24.754Z,12.57
2022-11-09T14:21:23.016Z,12.55
2022-11-09T14:23:50.912Z,12.52
2022-11-09T14:26:22.289Z,12.44
2022-11-09T14:28:50.091Z,12.36
2022-11-09T14:31:24.211Z,12.32
2022-11-09T14:34:07.062Z,12.28
2022-11-09T14:36:36.137Z,12.24
2022-11-09T14:39:18.205Z,12.23
2022-11-09T14:41:46.189Z,12.17
2022-11-09T14:44:20.202Z,12.13
2022-11-09T14:46:54.350Z,12.10
2022-11-09T14:49:23.927Z,12.04
2022-11-09T14:51:51.888Z,12.00
2022-11-09T14:54:25.312Z,11.98
2022-11-09T14:56:55.556Z,11.93
2022-11-09T14:59:34.109Z,11.83
2022-11-09T15:02:09.014Z,11.80
2022-11-09T15:04:59.967Z,11.76
2022-11-09T15:07:31.272Z,11.70
2022-11-09T15:10:01.687Z,11.64
2022-11-09T15:12:30.986Z,11.61
2022-11-09T15:15:04.926Z,11.53
2022-11-09T15:17:35.686Z,11.49
2022-11-09T15:20:14.671Z,11.43
2022-11-09T15:22:48.033Z,11.39
2022-11-09T15:25:26.643Z,11.39
2022-11-09T15:28:12.771Z,11.33
2022-11-09T15:30:55.532Z,11.29
2022-11-09T15:33:27.693Z,11.26
2022-11-09T15:35:56.880Z,11.23
2022-11-09T15:38:58.697Z,11.21
2022-11-09T15:41:27.350Z,11.15
2022-11-09T15:43:55.049Z,11.12
2022-11-09T15:46:28.487Z,11.13
2022-11-09T15:49:00.431Z,11.15
2022-11-09T15:51:28.338Z,11.16
2022-11-09T15:53:56.041Z,11.17
2022-11-09T15:56:25.454Z,11.14
2022-11-09T15:58:54.558Z,11.14
2022-11-09T16:01:22.224Z,11.16
2022-11-09T16:03:50.000Z,11.16
2022-11-09T16:06:24.607Z,11.15
2022-11-09T16:08:54.318Z,11.12
2022-11-09T16:11:21.957Z,11.15
2022-11-09T16:13:49.581Z,11.11
2022-11-09T16:16:17.280Z,11.07
2022-11-09T16:18:44.965Z,11.06
2022-11-09T16:21:17.959Z,11.07
2022-11-09T16:23:45.657Z,11.04
2022-11-09T16:26:16.352Z,11.03
2022-11-09T16:28:44.745Z,11.02
2022-11-09T16:31:14.517Z,11.02
2022-11-09T16:33:42.281Z,10.99
2022-11-09T16:36:15.974Z,10.97
2022-11-09T16:38:48.779Z,10.97
2022-11-09T16:41:17.598Z,10.97
2022-11-09T16:43:46.804Z,10.96
2022-11-09T16:46:20.941Z,10.93
2022-11-09T16:48:48.846Z,10.95
2022-11-09T16:51:16.552Z,10.96
2022-11-09T16:53:44.226Z,10.96
2022-11-09T16:56:12.046Z,10.98
2022-11-09T16:58:39.656Z,10.99
2022-11-09T17:01:12.539Z,11.00
2022-11-09T17:03:41.493Z,11.01
2022-11-09T17:06:12.258Z,11.00
2022-11-09T17:08:40.805Z,11.03
2022-11-09T17:11:14.192Z,11.02
2022-11-09T17:13:42.453Z,11.01
2022-11-09T17:16:12.891Z,11.02
2022-11-09T17:18:41.662Z,10.96
2022-11-09T17:21:15.322Z,10.96
2022-11-09T17:23:44.119Z,10.97
2022-11-09T17:26:12.092Z,11.00
2022-11-09T17:28:43.174Z,10.93
2022-11-09T17:31:13.882Z,10.96
2022-11-09T17:33:41.609Z,10.96
2022-11-09T17:36:12.360Z,10.96
2022-11-09T17:38:40.521Z,10.97
2022-11-09T17:41:16.817Z,10.96
2022-11-09T17:43:46.176Z,10.97
2022-11-09T17:46:22.022Z,10.98
2022-11-09T17:48:51.033Z,10.99
2022-11-09T17:51:20.444Z,10.95
2022-11-09T17:53:48.477Z,10.96
2022-11-09T17:56:16.192Z,10.97
2022-11-09T17:58:46.599Z,10.97
2022-11-09T18:01:17.699Z,10.96
2022-11-09T18:03:45.518Z,10.93
2022-11-09T18:06:24.465Z,10.95
2022-11-09T18:09:17.767Z,10.94
2022-11-09T18:11:39.730Z,10.95
2022-11-09T18:14:07.977Z,10.94
2022-11-09T18:16:35.696Z,10.93
2022-11-09T18:19:04.424Z,10.92
2022-11-09T18:21:34.398Z,10.92
2022-11-09T18:24:02.102Z,10.91
2022-11-09T18:26:30.321Z,10.91
2022-11-09T18:28:58.518Z,10.88
2022-11-09T18:31:26.201Z,10.88
2022-11-09T18:33:54.343Z,10.87
2022-11-09T18:36:22.636Z,10.86
2022-11-09T18:38:53.027Z,10.88
2022-11-09T18:41:25.410Z,10.89
2022-11-09T18:43:55.048Z,10.89
2022-11-09T18:46:23.140Z,10.90
2022-11-09T18:48:55.273Z,10.93
2022-11-09T18:51:23.240Z,10.95
2022-11-09T18:53:51.213Z,10.95
2022-11-09T18:56:25.672Z,10.96
2022-11-09T18:58:55.811Z,10.96
2022-11-09T19:01:25.900Z,10.99
2022-11-09T19:03:59.241Z,10.99
2022-11-09T19:06:28.039Z,11.03
2022-11-09T19:09:14.831Z,11.01
2022-11-09T19:11:42.548Z,11.02
2022-11-09T19:14:12.388Z,11.02
2022-11-09T19:16:40.216Z,11.04
2022-11-09T19:19:07.939Z,11.06
2022-11-09T19:21:42.429Z,11.06
2022-11-09T19:24:13.807Z,11.05
2022-11-09T19:26:41.633Z,11.05
2022-11-09T19:29:10.876Z,11.05
2022-11-09T19:31:39.542Z,11.08
2022-11-09T19:34:07.175Z,11.10
2022-11-09T19:36:34.904Z,11.08
2022-11-09T19:39:02.621Z,11.10
2022-11-09T19:41:30.458Z,11.10
2022-11-09T19:44:02.297Z,11.10
2022-11-09T19:46:32.179Z,11.11
2022-11-09T19:48:59.995Z,11.11
2022-11-09T19:51:27.733Z,11.12
2022-11-09T19:53:57.427Z,11.13
2022-11-09T19:56:26.910Z,11.14
2022-11-09T19:58:57.841Z,11.15
2022-11-09T20:01:26.035Z,11.15
2022-11-09T20:03:55.566Z,11.16
2022-11-09T20:06:24.986Z,11.17
2022-11-09T20:08:53.290Z,11.17
2022-11-09T20:11:41.298Z,11.21
2022-11-09T20:14:10.836Z,11.21
2022-11-09T20:16:39.607Z,11.18
2022-11-09T20:19:10.446Z,11.19
2022-11-09T20:21:39.153Z,11.20
2022-11-09T20:24:07.596Z,11.20
2022-11-09T20:26:35.208Z,11.20
2022-11-09T20:29:02.850Z,11.21
2022-11-09T20:31:30.450Z,11.22
2022-11-09T20:33:58.291Z,11.24
2022-11-09T20:36:25.950Z,11.26
2022-11-09T20:38:54.179Z,11.27
2022-11-09T20:41:25.376Z,11.28
2022-11-09T20:43:53.658Z,11.29
2022-11-09T20:46:23.746Z,11.29
2022-11-09T20:48:54.682Z,11.30
2022-11-09T20:51:24.263Z,11.31
2022-11-09T20:53:52.321Z,11.33
2022-11-09T20:56:21.354Z,11.33
2022-11-09T20:58:49.182Z,11.34
2022-11-09T21:01:22.393Z,11.35
2022-11-09T21:03:51.947Z,11.35
2022-11-09T21:06:21.144Z,11.36
2022-11-09T21:08:53.729Z,11.38
2022-11-09T21:11:24.791Z,11.38
2022-11-09T21:13:56.611Z,11.37
2022-11-09T21:16:25.037Z,11.38
2022-11-09T21:18:52.703Z,11.38
2022-11-09T21:21:22.944Z,11.41
2022-11-09T21:24:09.216Z,11.39
2022-11-09T21:26:55.769Z,11.41
2022-11-09T21:29:43.970Z,11.39
2022-11-09T21:32:13.178Z,11.39
2022-11-09T21:34:40.929Z,11.39
2022-11-09T21:37:12.523Z,11.36
2022-11-09T21:39:40.180Z,11.38
2022-11-09T21:42:08.581Z,11.36
2022-11-09T21:44:36.405Z,11.37
2022-11-09T21:47:04.589Z,11.40
2022-11-09T21:49:32.994Z,11.38
2022-11-09T21:52:01.168Z,11.39
2022-11-09T21:54:29.613Z,11.41
2022-11-09T21:56:57.896Z,11.43
2022-11-09T21:59:25.728Z,11.42
2022-11-09T22:01:53.993Z,11.42
2022-11-09T22:04:21.836Z,11.42
2022-11-09T22:06:49.594Z,11.45
2022-11-09T22:09:19.353Z,11.45
2022-11-09T22:12:05.702Z,11.48
2022-11-09T22:14:51.917Z,11.49
2022-11-09T22:17:19.566Z,11.49
2022-11-09T22:20:05.875Z,11.51
2022-11-09T22:22:35.032Z,11.51
2022-11-09T22:25:02.845Z,11.53
2022-11-09T22:27:33.856Z,11.53
2022-11-09T22:30:01.512Z,11.53
2022-11-09T22:32:29.292Z,11.52
2022-11-09T22:34:56.951Z,11.52
2022-11-09T22:37:24.615Z,11.52
2022-11-09T22:39:52.271Z,11.53
2022-11-09T22:42:19.896Z,11.53
2022-11-09T22:44:47.549Z,11.53
2022-11-09T22:47:15.167Z,11.52
2022-11-09T22:49:42.842Z,11.51
2022-11-09T22:52:11.382Z,11.52
2022-11-09T22:54:39.122Z,11.51
2022-11-09T22:57:06.839Z,11.50
2022-11-09T22:59:34.481Z,11.49
2022-11-09T23:02:02.196Z,11.50
2022-11-09T23:04:29.880Z,11.47
2022-11-09T23:06:57.663Z,11.43
2022-11-09T23:09:25.321Z,11.41
2022-11-09T23:11:53.192Z,11.38
2022-11-09T23:14:40.845Z,11.37
2022-11-09T23:17:28.472Z,11.40
2022-11-09T23:19:56.114Z,11.40
2022-11-09T23:22:23.795Z,11.37
2022-11-09T23:25:10.222Z,11.36
2022-11-09T23:27:37.867Z,11.33
2022-11-09T23:30:06.064Z,11.31
2022-11-09T23:32:33.723Z,11.31
2022-11-09T23:35:01.359Z,11.32
2022-11-09T23:37:29.032Z,11.31
2022-11-09T23:39:56.653Z,11.30
2022-11-09T23:42:24.290Z,11.34
2022-11-09T23:44:51.880Z,11.33
2022-11-09T23:47:19.618Z,11.33
2022-11-09T23:49:47.253Z,11.34
2022-11-09T23:52:14.883Z,11.33
2022-11-09T23:54:42.659Z,11.36
2022-11-09T23:57:10.304Z,11.36
2022-11-09T23:59:37.970Z,11.36
